BXS2421 SAEZ-SUMU
Flight info
| Callsign | BXS2421 |
|---|---|
| Flight time | 0h 31m |
| Altitude | 17000 |
| Route | DORVO1E DORVO A305 TOKAM |
| Aircraft | B738/M-SDE2E3FGHIRWXY/LB1 |
Departure
| Time | 2026-04-28 19:27 |
|---|---|
| Airport | Ezeiza International Airport - Ministro Pistarini (SAEZ) |
Arrival
| Time | 2026-04-28 19:59 |
|---|---|
| Airport | Carrasco General Cesáreo L. Berisso International Airport (SUMU) |
| Time | Latitude | Longitude | Altitude | Speed | Heading |
|---|---|---|---|---|---|
| 2026-04-28 18:59 | -34.81658 | -58.54258 | 74 ft | 0 kts | 13° |
| 2026-04-28 19:18 | -34.81675 | -58.54263 | 67 ft | 4 kts | 13° |
| 2026-04-28 19:18 | -34.81702 | -58.54270 | 66 ft | 4 kts | 12° |
| 2026-04-28 19:18 | -34.81728 | -58.54278 | 69 ft | 4 kts | 20° |
| 2026-04-28 19:18 | -34.81752 | -58.54292 | 65 ft | 4 kts | 36° |
| 2026-04-28 19:19 | -34.81768 | -58.54314 | 72 ft | 4 kts | 77° |
| 2026-04-28 19:19 | -34.81769 | -58.54326 | 65 ft | 0 kts | 99° |
| 2026-04-28 19:21 | -34.81770 | -58.54320 | 73 ft | 3 kts | 99° |
| 2026-04-28 19:21 | -34.81772 | -58.54265 | 74 ft | 10 kts | 93° |
| 2026-04-28 19:21 | -34.81779 | -58.54162 | 69 ft | 14 kts | 101° |
| 2026-04-28 19:22 | -34.81774 | -58.54032 | 70 ft | 17 kts | 65° |
| 2026-04-28 19:22 | -34.81738 | -58.53940 | 73 ft | 19 kts | 64° |
| 2026-04-28 19:22 | -34.81713 | -58.53757 | 65 ft | 14 kts | 129° |
| 2026-04-28 19:22 | -34.81793 | -58.53691 | 72 ft | 14 kts | 150° |
| 2026-04-28 19:23 | -34.81879 | -58.53634 | 72 ft | 14 kts | 144° |
| 2026-04-28 19:23 | -34.81911 | -58.53525 | 70 ft | 14 kts | 100° |
| 2026-04-28 19:23 | -34.81937 | -58.53402 | 66 ft | 15 kts | 104° |
| 2026-04-28 19:23 | -34.81963 | -58.53274 | 75 ft | 16 kts | 104° |
| 2026-04-28 19:24 | -34.81995 | -58.53138 | 72 ft | 14 kts | 107° |
| 2026-04-28 19:24 | -34.82022 | -58.53032 | 78 ft | 3 kts | 105° |
| 2026-04-28 19:24 | -34.82023 | -58.53027 | 78 ft | 1 kts | 105° |
| 2026-04-28 19:24 | -34.82028 | -58.53000 | 79 ft | 8 kts | 102° |
| 2026-04-28 19:25 | -34.82048 | -58.52890 | 69 ft | 19 kts | 103° |
| 2026-04-28 19:25 | -34.82089 | -58.52682 | 75 ft | 31 kts | 103° |
| 2026-04-28 19:25 | -34.82134 | -58.52452 | 75 ft | 28 kts | 104° |
| 2026-04-28 19:25 | -34.82186 | -58.52189 | 71 ft | 35 kts | 103° |
| 2026-04-28 19:26 | -34.82231 | -58.51958 | 69 ft | 19 kts | 103° |
| 2026-04-28 19:26 | -34.82268 | -58.51809 | 68 ft | 18 kts | 125° |
| 2026-04-28 19:26 | -34.82385 | -58.51804 | 73 ft | 18 kts | 192° |
| 2026-04-28 19:26 | -34.82494 | -58.51853 | 81 ft | 17 kts | 223° |
| 2026-04-28 19:27 | -34.82508 | -58.51989 | 81 ft | 26 kts | 282° |
| 2026-04-28 19:27 | -34.82408 | -58.52544 | 72 ft | 111 kts | 281° |
| 2026-04-28 19:27 | -34.82182 | -58.53763 | 206 ft | 176 kts | 286° |
| 2026-04-28 19:27 | -34.81953 | -58.55289 | 1110 ft | 190 kts | 278° |
| 2026-04-28 19:28 | -34.81836 | -58.56869 | 2369 ft | 183 kts | 279° |
| 2026-04-28 19:28 | -34.81600 | -58.58400 | 3183 ft | 193 kts | 285° |
| 2026-04-28 19:28 | -34.81252 | -58.60083 | 3544 ft | 217 kts | 276° |
| 2026-04-28 19:28 | -34.81571 | -58.61965 | 3992 ft | 245 kts | 239° |
| 2026-04-28 19:29 | -34.82716 | -58.63501 | 5055 ft | 245 kts | 229° |
| 2026-04-28 19:29 | -34.83502 | -58.64501 | 5767 ft | 246 kts | 230° |
| 2026-04-28 19:29 | -34.85076 | -58.66536 | 7052 ft | 250 kts | 230° |
| 2026-04-28 19:29 | -34.86402 | -58.67953 | 7940 ft | 258 kts | 215° |
| 2026-04-28 19:30 | -34.88072 | -58.68852 | 8915 ft | 266 kts | 201° |
| 2026-04-28 19:30 | -34.89818 | -58.69231 | 9606 ft | 274 kts | 190° |
| 2026-04-28 19:30 | -34.91740 | -58.69106 | 9921 ft | 284 kts | 175° |
| 2026-04-28 19:30 | -34.93632 | -58.68265 | 9928 ft | 293 kts | 155° |
| 2026-04-28 19:31 | -34.95221 | -58.66664 | 9980 ft | 303 kts | 138° |
| 2026-04-28 19:31 | -34.96533 | -58.64527 | 10138 ft | 331 kts | 126° |
| 2026-04-28 19:31 | -34.97648 | -58.61921 | 10336 ft | 361 kts | 117° |
| 2026-04-28 19:31 | -34.98525 | -58.58954 | 10791 ft | 380 kts | 108° |
| 2026-04-28 19:32 | -34.99039 | -58.55801 | 11506 ft | 388 kts | 99° |
| 2026-04-28 19:32 | -34.99166 | -58.52459 | 12317 ft | 394 kts | 90° |
| 2026-04-28 19:32 | -34.99059 | -58.49115 | 13133 ft | 397 kts | 89° |
| 2026-04-28 19:32 | -34.98962 | -58.45725 | 13911 ft | 402 kts | 90° |
| 2026-04-28 19:33 | -34.98875 | -58.42304 | 14618 ft | 406 kts | 90° |
| 2026-04-28 19:33 | -34.98792 | -58.38853 | 15346 ft | 409 kts | 90° |
| 2026-04-28 19:33 | -34.98737 | -58.36499 | 15849 ft | 411 kts | 91° |
| 2026-04-28 19:33 | -34.98630 | -58.31853 | 16731 ft | 417 kts | 91° |
| 2026-04-28 19:34 | -34.98575 | -58.29465 | 16930 ft | 418 kts | 91° |
| 2026-04-28 19:34 | -34.98492 | -58.25851 | 16957 ft | 434 kts | 91° |
| 2026-04-28 19:34 | -34.98405 | -58.22120 | 16975 ft | 444 kts | 91° |
| 2026-04-28 19:34 | -34.98318 | -58.18499 | 16966 ft | 446 kts | 91° |
| 2026-04-28 19:35 | -34.98223 | -58.14718 | 16964 ft | 446 kts | 91° |
| 2026-04-28 19:35 | -34.98128 | -58.10947 | 16965 ft | 446 kts | 91° |
| 2026-04-28 19:35 | -34.98032 | -58.07169 | 16969 ft | 446 kts | 91° |
| 2026-04-28 19:35 | -34.97936 | -58.03389 | 16970 ft | 446 kts | 91° |
| 2026-04-28 19:36 | -34.97839 | -57.99607 | 16966 ft | 446 kts | 91° |
| 2026-04-28 19:36 | -34.97741 | -57.95827 | 16968 ft | 446 kts | 90° |
| 2026-04-28 19:36 | -34.97524 | -57.92055 | 16952 ft | 449 kts | 81° |
| 2026-04-28 19:36 | -34.96482 | -57.88369 | 16969 ft | 451 kts | 62° |
| 2026-04-28 19:37 | -34.94671 | -57.85251 | 16979 ft | 450 kts | 49° |
| 2026-04-28 19:37 | -34.93339 | -57.83315 | 16974 ft | 450 kts | 49° |
| 2026-04-28 19:37 | -34.90610 | -57.79427 | 16964 ft | 451 kts | 48° |
| 2026-04-28 19:37 | -34.88577 | -57.76519 | 16961 ft | 451 kts | 49° |
| 2026-04-28 19:38 | -34.86562 | -57.73606 | 16961 ft | 451 kts | 49° |
| 2026-04-28 19:38 | -34.84541 | -57.70656 | 16967 ft | 451 kts | 49° |
| 2026-04-28 19:38 | -34.82541 | -57.67724 | 16968 ft | 451 kts | 49° |
| 2026-04-28 19:38 | -34.80534 | -57.64777 | 16976 ft | 451 kts | 49° |
| 2026-04-28 19:39 | -34.78539 | -57.61849 | 16984 ft | 451 kts | 49° |
| 2026-04-28 19:39 | -34.76534 | -57.58912 | 16984 ft | 451 kts | 49° |
| 2026-04-28 19:39 | -34.74531 | -57.55982 | 16988 ft | 451 kts | 49° |
| 2026-04-28 19:39 | -34.72829 | -57.52773 | 16979 ft | 453 kts | 67° |
| 2026-04-28 19:40 | -34.71978 | -57.49125 | 17000 ft | 451 kts | 84° |
| 2026-04-28 19:40 | -34.71979 | -57.45341 | 17007 ft | 446 kts | 98° |
| 2026-04-28 19:40 | -34.72311 | -57.41583 | 17000 ft | 447 kts | 99° |
| 2026-04-28 19:40 | -34.72670 | -57.37828 | 16991 ft | 447 kts | 99° |
| 2026-04-28 19:41 | -34.73024 | -57.34077 | 16988 ft | 448 kts | 99° |
| 2026-04-28 19:41 | -34.73366 | -57.30314 | 16992 ft | 448 kts | 99° |
| 2026-04-28 19:41 | -34.73691 | -57.26580 | 16993 ft | 448 kts | 98° |
| 2026-04-28 19:41 | -34.74009 | -57.22795 | 16997 ft | 449 kts | 98° |
| 2026-04-28 19:42 | -34.74320 | -57.19012 | 16990 ft | 441 kts | 98° |
| 2026-04-28 19:42 | -34.74614 | -57.15362 | 16982 ft | 425 kts | 98° |
| 2026-04-28 19:42 | -34.74899 | -57.11813 | 16985 ft | 420 kts | 98° |
| 2026-04-28 19:42 | -34.75092 | -57.09428 | 16995 ft | 419 kts | 98° |
| 2026-04-28 19:43 | -34.75472 | -57.04743 | 17013 ft | 422 kts | 98° |
| 2026-04-28 19:43 | -34.75758 | -57.01196 | 17006 ft | 416 kts | 98° |
| 2026-04-28 19:43 | -34.76032 | -56.97762 | 16984 ft | 401 kts | 98° |
| 2026-04-28 19:43 | -34.76294 | -56.94449 | 16920 ft | 387 kts | 98° |
| 2026-04-28 19:44 | -34.76552 | -56.91214 | 16607 ft | 381 kts | 98° |
| 2026-04-28 19:44 | -34.76807 | -56.88018 | 16108 ft | 381 kts | 98° |
| 2026-04-28 19:44 | -34.77069 | -56.84759 | 15118 ft | 395 kts | 98° |
| 2026-04-28 19:44 | -34.77339 | -56.81368 | 14237 ft | 406 kts | 98° |
| 2026-04-28 19:45 | -34.77608 | -56.77943 | 13629 ft | 407 kts | 97° |
| 2026-04-28 19:45 | -34.77872 | -56.74533 | 13147 ft | 401 kts | 97° |
| 2026-04-28 19:45 | -34.77924 | -56.71150 | 12668 ft | 399 kts | 87° |
| 2026-04-28 19:45 | -34.77496 | -56.67840 | 12161 ft | 396 kts | 77° |
| 2026-04-28 19:46 | -34.76876 | -56.64597 | 11680 ft | 392 kts | 77° |
| 2026-04-28 19:46 | -34.76259 | -56.61401 | 11437 ft | 382 kts | 77° |
| 2026-04-28 19:46 | -34.75672 | -56.58342 | 11212 ft | 363 kts | 77° |
| 2026-04-28 19:46 | -34.75177 | -56.55738 | 10913 ft | 352 kts | 77° |
| 2026-04-28 19:47 | -34.74649 | -56.52934 | 10696 ft | 336 kts | 77° |
| 2026-04-28 19:47 | -34.74137 | -56.50202 | 10393 ft | 326 kts | 77° |
| 2026-04-28 19:47 | -34.73642 | -56.47558 | 10126 ft | 316 kts | 77° |
| 2026-04-28 19:47 | -34.73160 | -56.44976 | 9747 ft | 312 kts | 77° |
| 2026-04-28 19:48 | -34.72679 | -56.42404 | 9381 ft | 313 kts | 77° |
| 2026-04-28 19:48 | -34.72196 | -56.39819 | 9067 ft | 312 kts | 77° |
| 2026-04-28 19:48 | -34.71718 | -56.37266 | 8774 ft | 310 kts | 77° |
| 2026-04-28 19:48 | -34.71242 | -56.34724 | 8478 ft | 308 kts | 77° |
| 2026-04-28 19:49 | -34.70765 | -56.32185 | 8191 ft | 307 kts | 77° |
| 2026-04-28 19:49 | -34.70291 | -56.29663 | 7908 ft | 304 kts | 77° |
| 2026-04-28 19:49 | -34.69825 | -56.27186 | 7557 ft | 298 kts | 77° |
| 2026-04-28 19:49 | -34.69366 | -56.24745 | 7124 ft | 296 kts | 77° |
| 2026-04-28 19:50 | -34.68453 | -56.19903 | 6273 ft | 290 kts | 77° |
| 2026-04-28 19:50 | -34.68008 | -56.17546 | 5821 ft | 281 kts | 77° |
| 2026-04-28 19:50 | -34.67577 | -56.15267 | 5366 ft | 274 kts | 76° |
| 2026-04-28 19:51 | -34.67155 | -56.13031 | 4905 ft | 269 kts | 76° |
| 2026-04-28 19:51 | -34.66739 | -56.10834 | 4442 ft | 264 kts | 76° |
| 2026-04-28 19:51 | -34.66338 | -56.08722 | 4216 ft | 248 kts | 76° |
| 2026-04-28 19:51 | -34.65967 | -56.06766 | 4194 ft | 228 kts | 75° |
| 2026-04-28 19:52 | -34.65617 | -56.04925 | 4173 ft | 220 kts | 76° |
| 2026-04-28 19:52 | -34.65410 | -56.03089 | 4168 ft | 220 kts | 88° |
| 2026-04-28 19:52 | -34.65449 | -56.01227 | 4171 ft | 223 kts | 96° |
| 2026-04-28 19:52 | -34.65648 | -55.99352 | 4160 ft | 225 kts | 100° |
| 2026-04-28 19:53 | -34.65951 | -55.97500 | 4147 ft | 221 kts | 105° |
| 2026-04-28 19:53 | -34.66370 | -55.95705 | 4033 ft | 221 kts | 110° |
| 2026-04-28 19:53 | -34.66914 | -55.93961 | 3927 ft | 219 kts | 116° |
| 2026-04-28 19:53 | -34.67568 | -55.92308 | 3837 ft | 217 kts | 121° |
| 2026-04-28 19:54 | -34.68326 | -55.90739 | 3726 ft | 215 kts | 126° |
| 2026-04-28 19:54 | -34.69172 | -55.89246 | 3617 ft | 213 kts | 130° |
| 2026-04-28 19:54 | -34.70142 | -55.87886 | 3540 ft | 214 kts | 140° |
| 2026-04-28 19:54 | -34.71308 | -55.86743 | 3326 ft | 214 kts | 159° |
| 2026-04-28 19:55 | -34.72671 | -55.86596 | 3168 ft | 189 kts | 206° |
| 2026-04-28 19:55 | -34.73694 | -55.87430 | 2995 ft | 172 kts | 223° |
| 2026-04-28 19:55 | -34.74600 | -55.88339 | 2800 ft | 162 kts | 229° |
| 2026-04-28 19:55 | -34.75355 | -55.89292 | 2590 ft | 145 kts | 232° |
| 2026-04-28 19:56 | -34.76014 | -55.90230 | 2367 ft | 145 kts | 237° |
| 2026-04-28 19:56 | -34.76617 | -55.91183 | 2171 ft | 143 kts | 239° |
| 2026-04-28 19:56 | -34.77068 | -55.91920 | 2022 ft | 143 kts | 238° |
| 2026-04-28 19:56 | -34.77658 | -55.92890 | 1825 ft | 143 kts | 239° |
| 2026-04-28 19:57 | -34.78255 | -55.93873 | 1640 ft | 145 kts | 239° |
| 2026-04-28 19:57 | -34.78862 | -55.94876 | 1433 ft | 145 kts | 239° |
| 2026-04-28 19:57 | -34.79461 | -55.95866 | 1249 ft | 145 kts | 238° |
| 2026-04-28 19:57 | -34.80057 | -55.96850 | 1028 ft | 145 kts | 238° |
| 2026-04-28 19:58 | -34.80630 | -55.97797 | 838 ft | 147 kts | 237° |
| 2026-04-28 19:58 | -34.81251 | -55.98819 | 641 ft | 144 kts | 238° |
| 2026-04-28 19:58 | -34.81838 | -55.99787 | 464 ft | 143 kts | 237° |
| 2026-04-28 19:58 | -34.82431 | -56.00762 | 288 ft | 146 kts | 238° |
| 2026-04-28 19:59 | -34.83047 | -56.01740 | 90 ft | 137 kts | 242° |
| 2026-04-28 19:59 | -34.83526 | -56.02579 | 81 ft | 108 kts | 232° |
| 2026-04-28 19:59 | -34.83875 | -56.03157 | 83 ft | 47 kts | 235° |
| 2026-04-28 19:59 | -34.84005 | -56.03372 | 83 ft | 30 kts | 233° |
| 2026-04-28 20:00 | -34.84122 | -56.03562 | 81 ft | 25 kts | 230° |
| 2026-04-28 20:00 | -34.84176 | -56.03631 | 83 ft | 0 kts | 225° |
| 2026-04-28 20:00 | -34.84180 | -56.03636 | 82 ft | 4 kts | 225° |
| 2026-04-28 20:00 | -34.84215 | -56.03660 | 81 ft | 4 kts | 165° |
| 2026-04-28 20:01 | -34.84243 | -56.03603 | 85 ft | 13 kts | 108° |
| 2026-04-28 20:01 | -34.84197 | -56.03484 | 85 ft | 21 kts | 53° |
| 2026-04-28 20:01 | -34.84099 | -56.03296 | 83 ft | 23 kts | 66° |
| 2026-04-28 20:01 | -34.84028 | -56.03113 | 84 ft | 23 kts | 67° |
| 2026-04-28 20:02 | -34.84003 | -56.02942 | 81 ft | 19 kts | 92° |
| 2026-04-28 20:02 | -34.84006 | -56.02808 | 83 ft | 14 kts | 74° |
| 2026-04-28 20:02 | -34.83962 | -56.02707 | 83 ft | 13 kts | 64° |
| 2026-04-28 20:02 | -34.83944 | -56.02598 | 81 ft | 13 kts | 82° |
| 2026-04-28 20:03 | -34.83947 | -56.02520 | 81 ft | 0 kts | 95° |
| 2026-04-28 20:03 | -34.83948 | -56.02502 | 81 ft | 9 kts | 94° |
| 2026-04-28 20:03 | -34.83942 | -56.02343 | 81 ft | 27 kts | 86° |
| 2026-04-28 20:03 | -34.83882 | -56.02245 | 83 ft | 20 kts | 12° |
| 2026-04-28 20:04 | -34.83733 | -56.02141 | 85 ft | 19 kts | 48° |
| 2026-04-28 20:04 | -34.83651 | -56.02028 | 83 ft | 12 kts | 46° |
| 2026-04-28 20:04 | -34.83606 | -56.01948 | 84 ft | 12 kts | 56° |
| 2026-04-28 20:04 | -34.83573 | -56.01889 | 80 ft | 2 kts | 78° |
| 2026-04-28 20:05 | -34.83573 | -56.01869 | 79 ft | 2 kts | 98° |
| 2026-04-28 20:05 | -34.83578 | -56.01849 | 81 ft | 3 kts | 114° |
| 2026-04-28 20:05 | -34.83593 | -56.01827 | 83 ft | 4 kts | 136° |
| 2026-04-28 20:05 | -34.83597 | -56.01823 | 83 ft | 0 kts | 140° |
| 2026-04-28 20:06 | -34.83602 | -56.01818 | 83 ft | 1 kts | 140° |
| 2026-04-28 20:06 | -34.83612 | -56.01808 | 83 ft | 2 kts | 143° |